createdAt,value
2018-05-21T00:01:44.290Z,3.00
2018-05-21T00:04:12.520Z,3.15
2018-05-21T00:06:39.978Z,3.10
2018-05-21T00:09:07.450Z,3.25
2018-05-21T00:11:34.909Z,2.70
2018-05-21T00:14:02.414Z,3.20
2018-05-21T00:16:29.892Z,3.03
2018-05-21T00:18:57.372Z,2.60
2018-05-21T00:21:24.836Z,3.25
2018-05-21T00:23:52.303Z,2.85
2018-05-21T00:26:19.745Z,2.83
2018-05-21T00:28:47.226Z,3.08
2018-05-21T00:31:14.686Z,3.30
2018-05-21T00:33:42.163Z,2.90
2018-05-21T00:36:10.426Z,3.12
2018-05-21T00:38:38.678Z,3.83
2018-05-21T00:41:06.137Z,2.70
2018-05-21T00:43:33.597Z,2.50
2018-05-21T00:46:01.079Z,2.92
2018-05-21T00:48:29.306Z,3.35
2018-05-21T00:50:56.805Z,2.70
2018-05-21T00:53:25.037Z,2.90
2018-05-21T00:55:52.500Z,2.62
2018-05-21T00:58:19.966Z,2.70
2018-05-21T01:00:47.457Z,2.70
2018-05-21T01:03:15.679Z,2.70
2018-05-21T01:05:43.174Z,3.00
2018-05-21T01:08:10.692Z,2.87
2018-05-21T01:10:38.163Z,2.55
2018-05-21T01:13:05.635Z,2.53
2018-05-21T01:15:33.092Z,2.47
2018-05-21T01:18:00.602Z,2.80
2018-05-21T01:20:28.053Z,3.10
2018-05-21T01:22:55.507Z,2.80
2018-05-21T01:25:22.975Z,2.62
2018-05-21T01:27:50.425Z,2.45
2018-05-21T01:30:17.901Z,3.08
2018-05-21T01:32:45.362Z,2.42
2018-05-21T01:35:12.828Z,2.78
2018-05-21T01:37:40.302Z,3.05
2018-05-21T01:40:07.778Z,2.75
2018-05-21T01:42:35.276Z,2.67
2018-05-21T01:45:02.738Z,2.70
2018-05-21T01:47:30.214Z,3.15
2018-05-21T01:49:57.679Z,2.90
2018-05-21T01:52:25.152Z,3.17
2018-05-21T01:54:52.608Z,2.15
2018-05-21T01:57:20.071Z,2.62
2018-05-21T01:59:47.542Z,2.30
2018-05-21T02:02:15.766Z,2.58
2018-05-21T02:04:44.002Z,3.10
2018-05-21T02:07:12.237Z,2.83
2018-05-21T02:09:39.716Z,3.03
2018-05-21T02:12:07.186Z,2.80
2018-05-21T02:14:35.425Z,2.60
2018-05-21T02:17:02.888Z,3.00
2018-05-21T02:19:30.346Z,2.40
2018-05-21T02:21:57.828Z,2.70
2018-05-21T02:24:26.069Z,2.67
2018-05-21T02:26:53.565Z,2.65
2018-05-21T02:29:20.994Z,2.67
2018-05-21T02:31:48.463Z,2.28
2018-05-21T02:34:15.911Z,2.67
2018-05-21T02:36:43.372Z,3.05
2018-05-21T02:39:10.845Z,2.42
2018-05-21T02:41:39.097Z,3.03
2018-05-21T02:44:06.557Z,2.50
2018-05-21T02:46:34.024Z,2.70
2018-05-21T02:49:01.515Z,2.37
2018-05-21T02:51:28.976Z,2.50
2018-05-21T02:53:56.434Z,2.92
2018-05-21T02:56:23.911Z,2.92
2018-05-21T02:58:51.380Z,2.78
2018-05-21T03:01:18.849Z,3.00
2018-05-21T03:03:46.318Z,2.22
2018-05-21T03:06:13.786Z,2.67
2018-05-21T03:08:42.057Z,2.40
2018-05-21T03:11:09.514Z,2.42
2018-05-21T03:13:36.961Z,2.65
2018-05-21T03:16:04.430Z,3.10
2018-05-21T03:18:32.653Z,2.30
2018-05-21T03:21:00.124Z,2.42
2018-05-21T03:23:27.581Z,2.70
2018-05-21T03:25:55.057Z,2.90
2018-05-21T03:28:22.525Z,2.60
2018-05-21T03:30:49.983Z,2.70
2018-05-21T03:33:17.459Z,2.25
2018-05-21T03:35:45.707Z,2.80
2018-05-21T03:38:13.178Z,2.62
2018-05-21T03:40:40.630Z,2.87
2018-05-21T03:43:08.102Z,2.83
2018-05-21T03:45:36.345Z,2.50
2018-05-21T03:48:03.820Z,2.50
2018-05-21T03:50:31.269Z,3.03
2018-05-21T03:52:59.433Z,3.05
2018-05-21T03:55:26.898Z,2.70
2018-05-21T03:57:54.364Z,2.70
2018-05-21T04:00:33.669Z,3.10
2018-05-21T04:06:03.529Z,2.42
2018-05-21T04:08:31.044Z,3.12
2018-05-21T04:10:58.514Z,2.85
2018-05-21T04:13:25.981Z,3.28
2018-05-21T04:15:54.222Z,2.90
2018-05-21T04:18:21.679Z,2.58
2018-05-21T04:20:49.188Z,2.95
2018-05-21T04:23:16.671Z,2.37
2018-05-21T04:25:44.911Z,3.33
2018-05-21T04:28:12.373Z,2.83
2018-05-21T04:30:39.838Z,2.75
2018-05-21T04:33:07.315Z,3.20
2018-05-21T04:35:35.533Z,3.08
2018-05-21T04:38:03.019Z,3.22
2018-05-21T04:40:30.483Z,2.95
2018-05-21T04:42:57.941Z,3.20
2018-05-21T04:45:25.437Z,3.00
2018-05-21T04:47:52.903Z,2.72
2018-05-21T04:50:20.377Z,3.40
2018-05-21T04:52:47.839Z,3.17
2018-05-21T04:55:15.308Z,3.00
2018-05-21T04:57:42.761Z,2.80
2018-05-21T05:00:10.229Z,3.05
2018-05-21T05:02:37.693Z,3.00
2018-05-21T05:05:05.155Z,3.45
2018-05-21T05:07:32.631Z,3.20
2018-05-21T05:10:00.091Z,2.80
2018-05-21T05:12:28.322Z,3.20
2018-05-21T05:14:55.779Z,2.90
2018-05-21T05:17:23.240Z,3.50
2018-05-21T05:19:50.727Z,3.33
2018-05-21T05:22:19.058Z,2.85
2018-05-21T05:24:46.534Z,3.15
2018-05-21T05:27:14.010Z,3.25
2018-05-21T05:29:41.488Z,3.42
2018-05-21T05:32:09.741Z,3.42
2018-05-21T05:34:37.198Z,3.25
2018-05-21T05:37:04.703Z,3.33
2018-05-21T05:39:32.163Z,3.42
2018-05-21T05:41:59.625Z,3.58
2018-05-21T05:44:27.094Z,3.37
2018-05-21T05:46:54.570Z,3.47
2018-05-21T05:49:22.109Z,3.67
2018-05-21T05:51:49.571Z,3.15
2018-05-21T05:54:17.047Z,3.65
2018-05-21T05:56:44.504Z,3.50
2018-05-21T05:59:11.965Z,3.35
2018-05-21T06:01:39.466Z,3.85
2018-05-21T06:04:06.919Z,3.92
2018-05-21T06:06:34.431Z,3.25
2018-05-21T06:09:01.862Z,3.70
2018-05-21T06:11:29.324Z,3.62
2018-05-21T06:13:56.786Z,3.80
2018-05-21T06:16:24.266Z,3.65
2018-05-21T06:18:51.730Z,3.65
2018-05-21T06:21:19.199Z,3.35
2018-05-21T06:23:47.429Z,3.70
2018-05-21T06:26:14.900Z,3.78
2018-05-21T06:28:42.362Z,3.83
2018-05-21T06:31:09.825Z,4.28
2018-05-21T06:33:37.289Z,4.00
2018-05-21T06:36:04.799Z,3.95
2018-05-21T06:38:32.254Z,3.62
2018-05-21T06:40:59.729Z,4.00
2018-05-21T06:43:27.187Z,3.87
2018-05-21T06:45:54.670Z,4.03
2018-05-21T06:48:22.210Z,3.83
2018-05-21T06:50:50.462Z,4.35
2018-05-21T06:53:17.935Z,3.90
2018-05-21T06:55:45.411Z,3.33
2018-05-21T06:58:12.892Z,4.03
2018-05-21T07:00:41.123Z,3.70
2018-05-21T07:03:08.611Z,3.60
2018-05-21T07:05:36.089Z,4.30
2018-05-21T07:08:03.587Z,4.20
2018-05-21T07:10:31.054Z,4.43
2018-05-21T07:12:58.537Z,4.45
2018-05-21T07:15:26.009Z,3.50
2018-05-21T07:17:54.241Z,3.70
2018-05-21T07:20:21.700Z,3.53
2018-05-21T07:22:49.193Z,4.68
2018-05-21T07:25:16.673Z,4.00
2018-05-21T07:27:44.161Z,4.55
2018-05-21T07:30:11.630Z,3.72
2018-05-21T07:32:39.094Z,3.85
2018-05-21T07:35:06.561Z,4.03
2018-05-21T07:37:34.026Z,4.10
2018-05-21T07:40:01.793Z,4.10
2018-05-21T07:42:29.319Z,3.75
2018-05-21T07:44:56.933Z,4.05
2018-05-21T07:47:24.281Z,4.15
2018-05-21T07:49:52.509Z,4.25
2018-05-21T07:52:19.963Z,4.50
2018-05-21T07:54:48.212Z,4.10
2018-05-21T07:57:15.753Z,4.60
2018-05-21T07:59:43.201Z,4.68
2018-05-21T08:02:11.422Z,4.15
2018-05-21T08:04:38.894Z,4.12
2018-05-21T08:07:06.357Z,4.35
2018-05-21T08:09:33.836Z,4.10
2018-05-21T08:12:01.333Z,4.50
2018-05-21T08:14:28.886Z,3.83
2018-05-21T08:16:56.317Z,4.50
2018-05-21T08:19:24.550Z,4.45
2018-05-21T08:21:52.015Z,4.05
2018-05-21T08:24:19.498Z,4.35
2018-05-21T08:26:46.958Z,4.53
2018-05-21T08:29:15.213Z,5.03
2018-05-21T08:31:42.687Z,4.62
2018-05-21T08:34:10.154Z,4.50
2018-05-21T08:36:38.382Z,4.07
2018-05-21T08:39:05.878Z,4.60
2018-05-21T08:41:34.175Z,4.32
2018-05-21T08:44:02.390Z,3.83
2018-05-21T08:46:29.845Z,3.80
2018-05-21T08:48:57.320Z,4.50
2018-05-21T08:51:24.781Z,4.60
2018-05-21T08:53:52.255Z,4.20
2018-05-21T08:56:19.726Z,4.30
2018-05-21T08:58:47.971Z,3.87
2018-05-21T09:01:15.447Z,4.15
2018-05-21T09:03:42.952Z,4.18
2018-05-21T09:06:10.415Z,4.18
2018-05-21T09:08:37.894Z,4.57
2018-05-21T09:11:05.353Z,4.22
2018-05-21T09:13:32.834Z,4.30
2018-05-21T09:16:00.296Z,4.22
2018-05-21T09:18:28.536Z,4.50
2018-05-21T09:20:56.029Z,4.55
2018-05-21T09:23:23.507Z,4.28
2018-05-21T09:25:51.778Z,4.30
2018-05-21T09:28:19.266Z,4.00
2018-05-21T09:30:46.736Z,3.70
2018-05-21T09:33:14.196Z,4.85
2018-05-21T09:35:41.702Z,4.07
2018-05-21T09:38:09.984Z,3.85
2018-05-21T09:40:38.204Z,3.95
2018-05-21T09:43:05.672Z,3.65
2018-05-21T09:45:33.149Z,3.75
2018-05-21T09:48:00.637Z,4.00
2018-05-21T09:50:28.114Z,3.33
2018-05-21T09:52:55.609Z,4.60
2018-05-21T09:55:23.074Z,3.75
2018-05-21T09:57:50.535Z,3.28
2018-05-21T10:00:18.006Z,3.28
2018-05-21T10:02:46.264Z,3.08
2018-05-21T10:05:13.729Z,3.30
2018-05-21T10:07:41.975Z,3.08
2018-05-21T10:10:09.450Z,3.72
2018-05-21T10:12:36.915Z,3.10
2018-05-21T10:15:04.397Z,3.40
2018-05-21T10:17:31.875Z,3.33
2018-05-21T10:19:59.342Z,2.72
2018-05-21T10:22:26.810Z,3.80
2018-05-21T10:24:54.278Z,3.95
2018-05-21T10:27:21.754Z,3.92
2018-05-21T10:29:49.256Z,3.83
2018-05-21T10:32:16.713Z,3.45
2018-05-21T10:34:44.169Z,3.30
2018-05-21T10:37:11.672Z,2.70
2018-05-21T10:39:39.121Z,3.22
2018-05-21T10:42:06.626Z,2.90
2018-05-21T10:44:34.095Z,2.47
2018-05-21T10:47:01.565Z,2.87
2018-05-21T10:49:29.062Z,3.00
2018-05-21T10:51:57.314Z,2.80
2018-05-21T10:54:24.829Z,2.90
2018-05-21T10:56:52.306Z,4.18
2018-05-21T10:59:19.786Z,2.70
2018-05-21T11:01:47.262Z,2.83
2018-05-21T11:04:14.757Z,2.40
2018-05-21T11:06:42.984Z,3.08
2018-05-21T11:09:10.440Z,2.45
2018-05-21T11:11:37.916Z,2.83
2018-05-21T11:14:05.403Z,3.85
2018-05-21T11:16:33.629Z,3.15
2018-05-21T11:19:01.117Z,3.08
2018-05-21T11:21:28.606Z,3.00
2018-05-21T11:23:56.107Z,3.08
2018-05-21T11:26:23.580Z,4.75
2018-05-21T11:28:51.093Z,3.58
2018-05-21T11:31:18.580Z,2.90
2018-05-21T11:33:46.046Z,2.50
2018-05-21T11:36:13.522Z,2.37
2018-05-21T11:38:41.760Z,3.70
2018-05-21T11:41:09.229Z,2.55
2018-05-21T11:43:36.693Z,2.50
2018-05-21T11:46:04.162Z,2.83
2018-05-21T11:48:31.640Z,2.35
2018-05-21T11:50:59.869Z,2.45
2018-05-21T11:53:27.345Z,2.67
2018-05-21T11:55:54.825Z,2.58
2018-05-21T11:58:23.071Z,2.28
2018-05-21T12:00:50.529Z,2.30
2018-05-21T12:03:18.012Z,2.83
2018-05-21T12:05:46.248Z,2.42
2018-05-21T12:08:13.745Z,2.30
2018-05-21T12:10:41.252Z,2.42
2018-05-21T12:13:08.711Z,2.60
2018-05-21T12:15:36.198Z,2.83
2018-05-21T12:18:03.667Z,2.33
2018-05-21T12:20:31.914Z,2.97
2018-05-21T12:22:59.384Z,2.37
2018-05-21T12:25:26.845Z,2.28
2018-05-21T12:27:54.301Z,2.45
2018-05-21T12:30:21.810Z,2.20
2018-05-21T12:32:49.265Z,2.60
2018-05-21T12:35:16.748Z,2.20
2018-05-21T12:37:44.229Z,2.67
2018-05-21T12:40:11.685Z,2.85
2018-05-21T12:42:39.206Z,2.35
2018-05-21T12:45:06.676Z,2.20
2018-05-21T12:47:34.925Z,2.50
2018-05-21T12:50:02.613Z,2.25
2018-05-21T12:52:30.856Z,2.30
2018-05-21T12:54:58.345Z,2.67
2018-05-21T12:57:25.828Z,2.20
2018-05-21T12:59:53.281Z,2.45
2018-05-21T13:02:20.780Z,2.10
2018-05-21T13:04:48.252Z,4.10
2018-05-21T13:07:16.142Z,2.28
2018-05-21T13:09:43.648Z,2.00
2018-05-21T13:12:11.883Z,2.50
2018-05-21T13:14:39.341Z,2.28
2018-05-21T13:17:06.817Z,2.25
2018-05-21T13:19:34.275Z,2.12
2018-05-21T13:22:01.755Z,1.90
2018-05-21T13:24:29.990Z,2.35
2018-05-21T13:26:57.450Z,2.33
2018-05-21T13:29:24.926Z,2.17
2018-05-21T13:31:52.426Z,2.40
2018-05-21T13:34:19.893Z,1.95
2018-05-21T13:36:47.419Z,2.65
2018-05-21T13:39:15.682Z,2.30
2018-05-21T13:41:43.163Z,2.33
2018-05-21T13:44:10.656Z,2.42
2018-05-21T13:46:38.110Z,2.03
2018-05-21T13:49:05.582Z,2.10
2018-05-21T13:51:33.047Z,2.58
2018-05-21T13:54:00.534Z,2.40
2018-05-21T13:56:28.762Z,2.03
2018-05-21T13:58:56.313Z,1.90
2018-05-21T14:01:24.502Z,2.20
2018-05-21T14:03:51.970Z,2.03
2018-05-21T14:06:19.446Z,2.20
2018-05-21T14:08:49.028Z,2.58
2018-05-21T14:11:16.501Z,1.90
2018-05-21T14:13:43.966Z,2.20
2018-05-21T14:16:12.251Z,2.17
2018-05-21T14:18:39.677Z,2.22
2018-05-21T14:21:07.148Z,2.40
2018-05-21T14:23:34.614Z,2.40
2018-05-21T14:26:02.847Z,2.47
2018-05-21T14:28:30.342Z,2.20
2018-05-21T14:30:57.813Z,2.20
2018-05-21T14:33:26.043Z,2.17
2018-05-21T14:35:53.518Z,2.25
2018-05-21T14:38:20.987Z,2.75
2018-05-21T14:40:48.457Z,2.58
2018-05-21T14:43:16.681Z,2.67
2018-05-21T14:45:44.165Z,2.50
2018-05-21T14:48:11.666Z,2.22
2018-05-21T14:50:39.142Z,2.47
2018-05-21T14:53:06.606Z,2.30
2018-05-21T14:55:34.087Z,1.92
2018-05-21T14:58:01.564Z,2.20
2018-05-21T15:00:29.043Z,2.20
2018-05-21T15:02:57.288Z,2.03
2018-05-21T15:05:24.757Z,2.15
2018-05-21T15:07:52.990Z,2.67
2018-05-21T15:10:20.474Z,2.80
2018-05-21T15:12:47.981Z,2.25
2018-05-21T15:15:15.464Z,2.17
2018-05-21T15:17:42.923Z,2.40
2018-05-21T15:20:10.403Z,2.10
2018-05-21T15:22:37.875Z,2.10
2018-05-21T15:25:06.154Z,2.53
2018-05-21T15:27:34.392Z,2.65
2018-05-21T15:30:01.873Z,2.17
2018-05-21T15:32:29.344Z,2.03
2018-05-21T15:34:57.570Z,4.05
2018-05-21T15:37:25.038Z,2.95
2018-05-21T15:39:52.517Z,6.65
2018-05-21T15:42:19.980Z,4.25
2018-05-21T15:44:47.461Z,3.15
2018-05-21T15:47:15.687Z,2.60
2018-05-21T15:49:43.165Z,2.65
2018-05-21T15:52:10.623Z,2.35
2018-05-21T15:54:38.876Z,1.90
2018-05-21T15:57:06.343Z,2.20
2018-05-21T15:59:33.823Z,2.25
2018-05-21T16:02:02.090Z,2.50
2018-05-21T16:04:29.566Z,2.00
2018-05-21T16:06:57.915Z,1.90
2018-05-21T16:09:25.405Z,1.90
2018-05-21T16:11:53.656Z,2.25
2018-05-21T16:14:21.190Z,2.45
2018-05-21T16:16:48.649Z,2.08
2018-05-21T16:19:16.119Z,1.90
2018-05-21T16:21:43.582Z,2.35
2018-05-21T16:24:11.051Z,2.40
2018-05-21T16:26:38.530Z,2.08
2018-05-21T16:29:06.764Z,2.20
2018-05-21T16:31:34.222Z,2.42
2018-05-21T16:34:01.707Z,1.90
2018-05-21T16:36:29.990Z,2.08
2018-05-21T16:38:58.229Z,2.15
2018-05-21T16:41:25.733Z,2.25
2018-05-21T16:43:53.723Z,2.30
2018-05-21T16:46:21.194Z,2.10
2018-05-21T16:48:48.679Z,1.85
2018-05-21T16:51:16.153Z,2.40
2018-05-21T16:53:43.645Z,2.25
2018-05-21T16:56:11.142Z,2.10
2018-05-21T16:58:38.603Z,2.20
2018-05-21T17:01:06.084Z,2.33
2018-05-21T17:03:34.346Z,2.12
2018-05-21T17:06:01.818Z,1.90
2018-05-21T17:08:30.042Z,1.80
2018-05-21T17:10:57.509Z,2.00
2018-05-21T17:13:25.085Z,1.95
2018-05-21T17:15:53.285Z,2.25
2018-05-21T17:18:21.517Z,2.03
2018-05-21T17:20:49.002Z,2.45
2018-05-21T17:23:16.831Z,2.70
2018-05-21T17:25:44.303Z,2.53
2018-05-21T17:28:12.203Z,1.65
2018-05-21T17:30:40.440Z,1.90
2018-05-21T17:33:07.912Z,2.00
2018-05-21T17:35:35.449Z,1.83
2018-05-21T17:38:03.649Z,2.05
2018-05-21T17:40:31.123Z,1.90
2018-05-21T17:42:58.605Z,2.20
2018-05-21T17:45:26.095Z,2.00
2018-05-21T17:47:53.624Z,1.75
2018-05-21T17:50:21.115Z,2.15
2018-05-21T17:52:48.577Z,1.90
2018-05-21T17:55:16.802Z,2.28
2018-05-21T17:57:45.083Z,1.85
2018-05-21T18:00:12.511Z,2.10
2018-05-21T18:02:39.995Z,1.95
2018-05-21T18:05:07.458Z,2.28
2018-05-21T18:07:35.001Z,1.75
2018-05-21T18:10:03.305Z,2.47
2018-05-21T18:12:30.800Z,1.90
2018-05-21T18:14:58.257Z,1.90
2018-05-21T18:17:25.729Z,1.90
2018-05-21T18:19:53.242Z,2.33
2018-05-21T18:22:20.717Z,2.00
2018-05-21T18:24:48.186Z,2.08
2018-05-21T18:27:15.670Z,1.95
2018-05-21T18:29:43.918Z,2.15
2018-05-21T18:32:11.405Z,1.90
2018-05-21T18:37:13.663Z,2.25
2018-05-21T18:39:41.129Z,1.87
2018-05-21T18:42:08.602Z,2.08
2018-05-21T18:44:36.850Z,2.20
2018-05-21T18:47:04.326Z,2.33
2018-05-21T18:49:31.804Z,2.05
2018-05-21T18:52:00.082Z,2.20
2018-05-21T18:54:28.315Z,1.92
2018-05-21T18:56:55.790Z,1.90
2018-05-21T18:59:23.262Z,1.92
2018-05-21T19:01:51.489Z,2.20
2018-05-21T19:04:18.981Z,2.40
2018-05-21T19:06:46.460Z,2.25
2018-05-21T19:09:14.678Z,2.28
2018-05-21T19:11:42.157Z,2.05
2018-05-21T19:14:09.617Z,2.10
2018-05-21T19:16:37.099Z,2.42
2018-05-21T19:19:05.344Z,2.17
2018-05-21T19:21:32.798Z,2.30
2018-05-21T19:24:00.268Z,2.30
2018-05-21T19:26:27.738Z,2.28
2018-05-21T19:28:55.236Z,2.55
2018-05-21T19:31:22.737Z,2.72
2018-05-21T19:33:50.213Z,2.20
2018-05-21T19:36:17.686Z,2.30
2018-05-21T19:38:45.925Z,2.35
2018-05-21T19:41:13.390Z,2.03
2018-05-21T19:43:40.873Z,2.40
2018-05-21T19:46:09.097Z,2.40
2018-05-21T19:48:36.577Z,2.53
2018-05-21T19:51:04.054Z,2.33
2018-05-21T19:53:32.304Z,2.22
2018-05-21T19:55:59.793Z,2.17
2018-05-21T19:58:28.040Z,2.30
2018-05-21T20:00:55.524Z,2.40
2018-05-21T20:03:23.776Z,2.80
2018-05-21T20:05:51.253Z,2.67
2018-05-21T20:08:19.519Z,2.83
2018-05-21T20:10:46.974Z,2.08
2018-05-21T20:13:14.448Z,3.03
2018-05-21T20:15:42.694Z,2.65
2018-05-21T20:18:10.160Z,2.25
2018-05-21T20:20:42.293Z,2.78
2018-05-21T20:23:09.765Z,2.40
2018-05-21T20:25:37.230Z,2.40
2018-05-21T20:28:04.696Z,2.47
2018-05-21T20:30:32.167Z,2.50
2018-05-21T20:33:00.416Z,2.83
2018-05-21T20:35:27.937Z,2.50
2018-05-21T20:37:55.430Z,2.50
2018-05-21T20:40:22.897Z,2.40
2018-05-21T20:42:50.369Z,2.80
2018-05-21T20:45:18.669Z,2.25
2018-05-21T20:47:46.113Z,2.30
2018-05-21T20:50:14.362Z,2.58
2018-05-21T20:52:41.830Z,2.47
2018-05-21T20:55:10.097Z,2.28
2018-05-21T20:57:37.557Z,2.70
2018-05-21T21:00:05.046Z,2.75
2018-05-21T21:02:33.302Z,2.58
2018-05-21T21:05:01.548Z,2.80
2018-05-21T21:07:29.009Z,3.10
2018-05-21T21:09:56.608Z,2.40
2018-05-21T21:12:24.837Z,2.70
2018-05-21T21:14:52.328Z,2.55
2018-05-21T21:17:20.577Z,2.42
2018-05-21T21:19:48.049Z,2.47
2018-05-21T21:22:15.566Z,2.72
2018-05-21T21:24:43.024Z,3.00
2018-05-21T21:27:10.473Z,2.55
2018-05-21T21:29:37.957Z,2.70
2018-05-21T21:32:05.443Z,2.55
2018-05-21T21:34:33.726Z,2.60
2018-05-21T21:37:01.963Z,2.80
2018-05-21T21:39:29.414Z,2.50
2018-05-21T21:41:56.913Z,2.75
2018-05-21T21:44:25.148Z,2.53
2018-05-21T21:46:52.629Z,2.75
2018-05-21T21:49:20.075Z,2.83
2018-05-21T21:51:47.563Z,3.00
2018-05-21T21:54:15.802Z,2.60
2018-05-21T21:56:43.319Z,2.60
2018-05-21T21:59:10.800Z,2.40
2018-05-21T22:01:38.299Z,2.60
2018-05-21T22:04:06.534Z,2.55
2018-05-21T22:06:34.028Z,3.00
2018-05-21T22:09:01.519Z,2.45
2018-05-21T22:11:28.979Z,2.92
2018-05-21T22:13:56.474Z,2.60
2018-05-21T22:16:24.718Z,2.87
2018-05-21T22:18:52.178Z,2.58
2018-05-21T22:21:19.664Z,2.97
2018-05-21T22:23:47.126Z,2.50
2018-05-21T22:26:14.662Z,2.90
2018-05-21T22:28:42.170Z,2.95
2018-05-21T22:31:10.414Z,3.00
2018-05-21T22:33:37.910Z,2.35
2018-05-21T22:36:06.155Z,2.60
2018-05-21T22:38:33.630Z,3.20
2018-05-21T22:41:01.131Z,3.15
2018-05-21T22:43:28.593Z,2.40
2018-05-21T22:45:56.084Z,2.72
2018-05-21T22:48:23.568Z,2.58
2018-05-21T22:50:51.820Z,3.03
2018-05-21T22:53:19.292Z,2.85
2018-05-21T22:55:46.774Z,2.70
2018-05-21T22:58:14.248Z,2.83
2018-05-21T23:00:41.724Z,2.92
2018-05-21T23:03:09.218Z,3.83
2018-05-21T23:05:36.684Z,2.60
2018-05-21T23:08:04.147Z,3.33
2018-05-21T23:10:32.402Z,2.90
2018-05-21T23:12:59.865Z,2.70
2018-05-21T23:15:27.354Z,2.78
2018-05-21T23:17:54.830Z,3.10
2018-05-21T23:20:22.326Z,2.83
2018-05-21T23:22:49.821Z,2.65
2018-05-21T23:25:18.066Z,3.28
2018-05-21T23:27:45.547Z,2.92
2018-05-21T23:30:13.770Z,2.95
2018-05-21T23:32:42.013Z,3.10
2018-05-21T23:35:09.481Z,3.05
2018-05-21T23:37:36.959Z,2.72
2018-05-21T23:40:04.418Z,3.25
2018-05-21T23:42:31.940Z,2.90
2018-05-21T23:44:59.397Z,2.87
2018-05-21T23:47:26.874Z,3.15
2018-05-21T23:49:54.337Z,2.80
2018-05-21T23:52:21.848Z,2.80
2018-05-21T23:54:49.303Z,3.17
2018-05-21T23:57:17.525Z,3.22
2018-05-21T23:59:45.013Z,3.47
